Time;durP1;ratioP1;P1;durP2;ratioP2;P2;SDS_P1;SDS_P2;PMS_P1;PMS_P2;Temp;Humidity;BMP_temperature;BMP_pressure;BME280_temperature;BME280_humidity;BME280_pressure;Samples;Min_cycle;Max_cycle;Signal;HPM_P1;HPM_P2
2022/07/01 00:08:31;;;;;;;4.28;3.50;;;;;;;20.79;86.94;100945.97;20811970;28;20052;-59
2022/07/01 00:18:52;;;;;;;4.85;3.90;;;;;;;20.62;86.40;100949.50;20811463;28;20034;-58
2022/07/01 00:29:14;;;;;;;4.70;3.70;;;;;;;20.35;90.07;100979.84;20823903;28;20046;-61
2022/07/01 00:39:36;;;;;;;4.55;3.70;;;;;;;20.19;88.93;100972.63;20836118;28;20065;-59
2022/07/01 00:49:59;;;;;;;7.05;3.15;;;;;;;19.58;88.91;100986.84;20829107;28;20103;-61
2022/07/01 01:00:24;;;;;;;9.32;3.40;;;;;;;19.24;91.10;100996.44;20829531;28;20046;-59
2022/07/01 01:10:46;;;;;;;8.68;2.97;;;;;;;18.98;94.28;101013.16;20840151;28;20049;-58
2022/07/01 01:21:08;;;;;;;11.18;3.15;;;;;;;18.51;92.26;101024.75;20832582;28;20509;-61
2022/07/01 01:31:33;;;;;;;12.95;2.83;;;;;;;18.34;92.04;101027.31;20852198;28;20048;-60
2022/07/01 01:41:55;;;;;;;14.55;2.42;;;;;;;18.15;96.56;101032.59;20847758;28;20072;-60
2022/07/01 01:52:16;;;;;;;9.98;2.10;;;;;;;17.93;93.38;101040.81;20849403;28;20054;-58
2022/07/01 02:02:38;;;;;;;10.27;2.40;;;;;;;17.82;92.32;101030.41;20849942;28;20045;-58
2022/07/01 02:13:00;;;;;;;9.23;2.10;;;;;;;17.95;92.03;101052.06;20850710;28;20045;-59
2022/07/01 02:23:21;;;;;;;9.60;1.42;;;;;;;17.91;91.09;101067.34;20842423;28;20046;-59
2022/07/01 02:33:43;;;;;;;3.75;1.27;;;;;;;17.95;89.70;101083.72;20850965;28;20041;-59
2022/07/01 02:44:05;;;;;;;6.20;1.02;;;;;;;17.95;89.20;101067.91;20844336;28;20056;-59
2022/07/01 02:54:26;;;;;;;5.88;1.05;;;;;;;17.81;90.66;101082.34;20839364;28;20049;-59
2022/07/01 03:04:49;;;;;;;4.63;1.08;;;;;;;17.80;88.51;101096.50;20842332;28;20037;-58
2022/07/01 03:15:13;;;;;;;1.95;0.80;;;;;;;17.80;88.84;101108.84;20831675;28;20049;-58
2022/07/01 03:25:36;;;;;;;1.63;0.73;;;;;;;17.77;88.03;101106.47;20853291;28;20575;-58
2022/07/01 03:35:57;;;;;;;1.05;0.90;;;;;;;17.85;90.55;101154.13;20838455;28;20114;-59
2022/07/01 03:46:19;;;;;;;2.50;0.85;;;;;;;17.81;91.04;101179.09;20842304;28;20057;-58
2022/07/01 03:56:40;;;;;;;5.15;0.70;;;;;;;17.69;88.82;101183.63;20843846;28;20045;-59
2022/07/01 04:07:04;;;;;;;1.95;0.60;;;;;;;17.65;96.21;101197.22;20844183;28;20513;-59
2022/07/01 04:17:26;;;;;;;2.47;0.90;;;;;;;17.68;94.69;101232.06;20853349;28;20052;-58
2022/07/01 04:27:48;;;;;;;2.35;0.88;;;;;;;17.61;90.59;101244.16;20847981;28;20576;-59
2022/07/01 04:38:09;;;;;;;2.08;1.08;;;;;;;17.54;90.72;101248.25;20839176;28;20045;-59
2022/07/01 04:48:34;;;;;;;5.03;0.98;;;;;;;17.54;92.34;101250.91;20833867;28;20045;-58
2022/07/01 04:58:56;;;;;;;3.95;0.85;;;;;;;17.52;92.86;101246.75;20860166;28;20568;-58
2022/07/01 05:09:17;;;;;;;4.20;1.13;;;;;;;17.38;96.10;101278.72;20861690;28;20041;-59
2022/07/01 05:30:23;;;;;;;2.90;1.40;;;;;;;17.29;95.04;101254.91;20853219;28;20045;-59
2022/07/01 05:40:44;;;;;;;2.10;1.60;;;;;;;17.23;93.41;101274.72;20858187;28;20045;-59
2022/07/01 05:51:06;;;;;;;2.08;1.77;;;;;;;17.15;95.14;101261.38;20859846;28;20049;-59
2022/07/01 06:01:28;;;;;;;4.25;2.70;;;;;;;17.07;94.52;101257.72;20850866;28;20056;-60
2022/07/01 06:11:49;;;;;;;9.60;3.28;;;;;;;17.19;93.32;101270.66;20852580;28;20053;-61
2022/07/01 06:22:16;;;;;;;6.65;4.40;;;;;;;17.25;94.43;101290.38;20851500;28;20052;-60
2022/07/01 06:32:38;;;;;;;7.47;5.15;;;;;;;17.19;94.59;101286.47;20852676;28;20045;-59
2022/07/01 06:42:59;;;;;;;10.88;5.90;;;;;;;17.28;93.59;101293.63;20846254;28;20049;-60
2022/07/01 06:53:21;;;;;;;10.77;6.95;;;;;;;17.44;93.58;101270.31;20845928;28;20585;-60
2022/07/01 07:03:42;;;;;;;9.90;7.20;;;;;;;17.42;90.25;101295.97;20835812;28;20041;-60
2022/07/01 07:14:04;;;;;;;11.95;8.13;;;;;;;17.37;92.04;101303.41;20839387;28;20045;-60
2022/07/01 07:24:26;;;;;;;14.32;9.02;;;;;;;17.34;90.64;101316.84;20836620;28;20060;-59
2022/07/01 07:34:47;;;;;;;12.95;9.10;;;;;;;17.29;93.42;101348.00;20840001;28;20060;-59
2022/07/01 07:45:11;;;;;;;17.80;10.77;;;;;;;17.32;95.67;101363.56;20828399;28;20430;-60
2022/07/01 07:55:39;;;;;;;15.77;11.52;;;;;;;17.47;94.16;101372.84;20822797;28;20045;-61
2022/07/01 08:06:00;;;;;;;15.80;11.55;;;;;;;17.53;91.86;101380.25;20822687;28;20057;-60
2022/07/01 08:16:22;;;;;;;16.20;9.73;;;;;;;17.58;90.04;101380.69;20825936;28;20038;-59
2022/07/01 08:26:44;;;;;;;15.18;9.48;;;;;;;17.70;91.36;101390.19;20823043;28;20041;-61
2022/07/01 08:37:06;;;;;;;14.75;10.15;;;;;;;17.76;91.83;101410.75;20816563;28;20128;-60
2022/07/01 08:47:28;;;;;;;13.93;10.00;;;;;;;17.95;87.59;101400.31;20813736;28;20041;-60
2022/07/01 08:57:52;;;;;;;17.65;10.35;;;;;;;18.09;90.48;101415.78;20811039;28;20053;-61
2022/07/01 09:08:13;;;;;;;16.00;9.15;;;;;;;18.11;88.07;101429.69;20815902;28;20041;-60
2022/07/01 09:18:35;;;;;;;17.48;10.40;;;;;;;18.21;88.09;101441.13;20816707;28;20061;-61
2022/07/01 09:28:59;;;;;;;13.50;10.00;;;;;;;18.38;86.77;101451.09;20815820;28;20478;-62
2022/07/01 09:39:21;;;;;;;14.95;9.05;;;;;;;18.48;86.50;101443.06;20814533;28;20394;-62
2022/07/01 09:49:58;;;;;;;10.25;7.25;;;;;;;18.60;83.02;101447.31;20826132;28;20096;-59
2022/07/01 10:00:20;;;;;;;9.73;7.35;;;;;;;18.67;82.79;101453.69;20822115;28;20037;-62
2022/07/01 10:11:04;;;;;;;10.10;6.88;;;;;;;18.84;82.81;101450.41;20837207;28;20037;-61
2022/07/01 10:21:29;;;;;;;8.70;6.95;;;;;;;18.90;80.78;101460.44;20839706;28;20047;-62
2022/07/01 10:31:51;;;;;;;7.75;6.35;;;;;;;19.10;79.20;101483.28;20856846;28;20136;-62
2022/07/01 10:42:12;;;;;;;10.38;7.00;;;;;;;19.42;78.80;101484.75;20822794;28;20099;-63
2022/07/01 10:52:39;;;;;;;8.18;5.13;;;;;;;19.56;77.48;101471.09;20847330;28;20490;-63
2022/07/01 11:03:22;;;;;;;7.78;5.13;;;;;;;19.79;75.57;101464.50;20839577;28;20050;-62
2022/07/01 11:13:44;;;;;;;5.32;4.55;;;;;;;20.22;74.46;101458.72;20835124;28;20046;-62
2022/07/01 11:24:08;;;;;;;7.03;4.32;;;;;;;20.51;72.97;101450.53;20863190;28;20049;-61
2022/07/01 11:34:30;;;;;;;8.68;4.05;;;;;;;20.92;71.39;101468.59;20845424;28;20041;-61
2022/07/01 11:44:52;;;;;;;8.73;3.60;;;;;;;21.29;69.74;101482.53;20848132;28;20041;-61
2022/07/01 11:55:19;;;;;;;8.15;4.13;;;;;;;20.98;70.52;101469.81;20840850;28;20136;-62
2022/07/01 12:05:59;;;;;;;10.77;4.28;;;;;;;21.16;70.26;101484.75;20842611;28;20041;-61
2022/07/01 12:16:21;;;;;;;4.90;3.58;;;;;;;21.07;69.59;101493.59;20823487;28;20577;-62
2022/07/01 12:26:59;;;;;;;5.78;3.28;;;;;;;20.98;68.96;101502.44;20844247;28;20060;-62
2022/07/01 12:37:27;;;;;;;4.18;2.83;;;;;;;21.00;67.48;101497.81;20838512;28;20045;-62
2022/07/01 12:47:51;;;;;;;6.55;2.70;;;;;;;21.06;69.34;101491.94;20843484;28;20116;-61
2022/07/01 12:58:14;;;;;;;5.78;3.05;;;;;;;20.96;68.02;101483.19;20824826;28;20053;-62
2022/07/01 13:08:35;;;;;;;5.57;2.63;;;;;;;21.13;69.11;101479.72;20840948;28;20049;-62
2022/07/01 13:18:57;;;;;;;4.82;2.60;;;;;;;21.32;65.42;101506.13;20851598;28;20125;-61
2022/07/01 13:29:19;;;;;;;4.28;3.15;;;;;;;21.40;67.01;101515.00;20854546;28;20049;-62
2022/07/01 13:39:46;;;;;;;7.13;3.53;;;;;;;21.55;67.53;101507.31;20841965;28;20717;-60
2022/07/01 13:50:10;;;;;;;4.25;3.00;;;;;;;21.56;68.57;101482.47;20841894;28;20132;-59
2022/07/01 14:00:31;;;;;;;6.78;2.90;;;;;;;21.82;67.92;101501.97;20855362;28;20041;-60
2022/07/01 14:10:54;;;;;;;5.85;2.17;;;;;;;22.03;65.22;101510.41;20846088;28;20136;-60
2022/07/01 14:21:15;;;;;;;4.30;2.55;;;;;;;22.17;65.88;101510.69;20832236;28;20118;-59
2022/07/01 14:31:37;;;;;;;3.05;1.75;;;;;;;22.30;64.63;101512.91;20843860;28;20044;-64
2022/07/01 14:41:58;;;;;;;4.05;2.25;;;;;;;22.69;64.60;101499.88;20842176;28;20065;-62
2022/07/01 14:52:22;;;;;;;4.03;2.08;;;;;;;22.91;65.68;101517.09;20840238;28;20199;-62
2022/07/01 15:02:44;;;;;;;6.03;1.95;;;;;;;22.69;63.72;101517.66;20847693;28;20526;-66
2022/07/01 15:13:07;;;;;;;6.22;1.60;;;;;;;22.41;65.30;101532.94;20843344;28;20060;-59
2022/07/01 15:23:31;;;;;;;32.92;3.92;;;;;;;22.21;65.92;101551.88;20838186;28;20524;-61
2022/07/01 15:33:56;;;;;;;4.72;2.10;;;;;;;22.07;64.80;101562.25;20843532;28;20061;-60
2022/07/01 15:44:18;;;;;;;9.10;2.42;;;;;;;22.13;65.24;101558.94;20837887;28;20401;-61
2022/07/01 15:54:39;;;;;;;4.53;2.50;;;;;;;21.97;63.24;101582.75;20828641;28;20046;-63
2022/07/01 16:05:01;;;;;;;4.47;1.88;;;;;;;21.99;65.00;101575.44;20823036;28;20056;-64
2022/07/01 16:15:25;;;;;;;3.45;0.90;;;;;;;22.02;64.65;101588.44;20831681;28;20057;-60
2022/07/01 16:25:47;;;;;;;2.35;1.00;;;;;;;22.29;65.00;101593.63;20827376;28;20049;-63
2022/07/01 16:36:25;;;;;;;5.20;0.88;;;;;;;22.11;63.16;101606.94;20830993;28;20034;-61
2022/07/01 16:46:49;;;;;;;2.50;0.90;;;;;;;21.97;64.20;101593.38;20841470;28;20482;-64
2022/07/01 16:57:18;;;;;;;5.68;1.13;;;;;;;22.00;65.63;101598.38;20831139;28;20077;-67
2022/07/01 17:07:42;;;;;;;6.72;1.20;;;;;;;22.83;62.78;101600.34;20832452;28;20041;-70
2022/07/01 17:18:03;;;;;;;42.95;3.08;;;;;;;23.14;65.00;101613.97;20821175;28;20042;-67
2022/07/01 17:28:48;;;;;;;2.22;0.52;;;;;;;22.90;60.18;101617.31;20828222;28;20069;-69
2022/07/01 17:39:10;;;;;;;2.17;0.80;;;;;;;22.81;61.74;101623.59;20810432;28;20533;-70
2022/07/01 17:49:33;;;;;;;3.92;1.35;;;;;;;22.64;64.24;101629.78;20830610;28;20045;-62
2022/07/01 17:59:56;;;;;;;1.77;0.80;;;;;;;22.43;65.16;101629.31;20816101;28;20060;-62
2022/07/01 18:10:18;;;;;;;2.47;0.60;;;;;;;21.96;64.92;101647.47;20847588;28;20145;-61
2022/07/01 18:20:51;;;;;;;4.97;0.80;;;;;;;21.53;63.46;101647.31;20827722;28;20041;-61
2022/07/01 18:31:24;;;;;;;7.35;0.70;;;;;;;21.54;64.72;101654.31;20830924;28;20395;-65
2022/07/01 18:41:45;;;;;;;0.95;0.63;;;;;;;21.65;65.63;101662.09;20839691;28;20045;-64
2022/07/01 18:52:07;;;;;;;3.80;0.60;;;;;;;21.65;64.72;101662.91;20821797;28;20053;-64
2022/07/01 19:02:29;;;;;;;3.10;1.02;;;;;;;21.63;66.31;101680.81;20837331;28;20053;-64
2022/07/01 19:12:50;;;;;;;4.40;0.95;;;;;;;21.55;66.95;101693.09;20836958;28;20450;-64
2022/07/01 19:23:12;;;;;;;3.55;1.00;;;;;;;21.46;65.96;101702.81;20835464;28;20046;-64
2022/07/01 19:33:34;;;;;;;4.75;0.95;;;;;;;21.34;66.15;101721.72;20839396;28;20051;-64
2022/07/01 19:43:58;;;;;;;3.75;0.77;;;;;;;21.23;65.38;101740.47;20846544;28;20040;-64
2022/07/01 19:54:26;;;;;;;4.55;0.80;;;;;;;21.12;66.58;101753.88;20835420;28;20506;-65
2022/07/01 20:04:47;;;;;;;3.70;0.90;;;;;;;20.85;68.02;101772.38;20825684;28;20044;-65
2022/07/01 20:15:09;;;;;;;8.10;0.63;;;;;;;20.68;68.25;101775.69;20830524;28;20663;-64
2022/07/01 20:25:32;;;;;;;7.95;0.93;;;;;;;20.44;69.67;101791.19;20829075;28;20486;-64
2022/07/01 20:35:54;;;;;;;6.35;0.88;;;;;;;20.18;70.33;101802.41;20831402;28;20394;-64
2022/07/01 20:46:15;;;;;;;2.40;0.75;;;;;;;20.01;70.97;101808.38;20827026;28;20048;-64
2022/07/01 20:56:38;;;;;;;2.28;0.82;;;;;;;19.83;71.28;101817.91;20821817;28;20449;-65
2022/07/01 21:07:00;;;;;;;4.00;0.90;;;;;;;19.64;72.01;101833.69;20824386;28;20044;-64
2022/07/01 21:17:21;;;;;;;3.97;0.88;;;;;;;19.48;72.89;101858.97;20841810;28;20041;-65
2022/07/01 21:27:43;;;;;;;4.68;1.17;;;;;;;19.28;73.55;101856.34;20825276;28;20041;-65
2022/07/01 21:38:06;;;;;;;3.08;1.02;;;;;;;19.14;73.92;101875.16;20829782;28;20045;-65
2022/07/01 21:48:28;;;;;;;4.45;1.70;;;;;;;18.93;74.36;101888.28;20848747;28;20400;-65
2022/07/01 21:58:51;;;;;;;2.33;1.38;;;;;;;18.80;74.38;101892.91;20841400;28;20067;-65
2022/07/01 22:09:13;;;;;;;6.72;1.40;;;;;;;18.76;74.03;101902.06;20853423;28;20049;-65
2022/07/01 22:19:36;;;;;;;4.15;1.30;;;;;;;18.74;74.28;101914.56;20855672;28;20055;-65
2022/07/01 22:30:01;;;;;;;4.50;1.50;;;;;;;18.61;74.63;101911.22;20850737;28;20095;-65
2022/07/01 22:40:23;;;;;;;9.35;1.30;;;;;;;18.41;75.42;101911.97;20848189;28;20068;-66
2022/07/01 22:50:53;;;;;;;2.53;1.15;;;;;;;18.22;76.36;101910.03;20850509;28;20124;-64
2022/07/01 23:01:22;;;;;;;3.10;1.10;;;;;;;18.09;76.64;101909.31;20848269;28;20049;-65
2022/07/01 23:11:50;;;;;;;6.25;1.70;;;;;;;17.97;76.68;101911.16;20851929;28;20437;-65
2022/07/01 23:22:12;;;;;;;4.03;1.55;;;;;;;17.94;75.47;101910.53;20846761;28;20046;-65
2022/07/01 23:32:36;;;;;;;5.15;1.52;;;;;;;17.99;74.87;101897.81;20852574;28;20070;-65
2022/07/01 23:42:58;;;;;;;2.47;1.50;;;;;;;17.98;74.43;101904.06;20846895;28;20049;-65
2022/07/01 23:53:20;;;;;;;3.92;1.80;;;;;;;17.87;74.45;101909.34;20840284;28;20072;-65
